Station History

Weather Underground - logo

Station Historical Data
Daily Summary for February 12, 2018 Units:  Both    English   Metric
« Previous Day
Next Day »
Daily Weekly Monthly Yearly Custom
  High: Low: Average:
Temperature: 57.4 °F /  14.1 °C 36.4 °F /  2.4 °C 47.6 °F /  8.7 °C
Dew Point: 44.3 °F /  6.8 °C 33.7 °F /  0.9 °C 40.1 °F /  4.5 °C
Humidity: 91 % 56 % 76 %
Wind Speed: 6.9 mph /  11.1 km/h - 0.8 mph /  1.3 km/h
Wind Gust: 4.0 mph /  6.4 km/h - -
Wind:- - SW
Pressure: 30.00 in /  1015.8 hPa 29.84 in /  1010.4 hPa -
Precipitation: 0.00 in /  0 mm    
Historical Graphs
 
 
Tabular Data for February 12, 2018
Time Temperature Dew Point Pressure Wind Wind Speed Wind Gust Humidity Rainfall Rate (Hourly)
00:00 45.1 °F /  7.3 °C 39.3 °F /  4.1 °C 29.86 in /  1011.1 hPa Calm     80 % 0.00 in /  0 mm
00:05 44.9 °F /  7.2 °C 39.1 °F /  3.9 °C 29.86 in /  1011.1 hPa Calm     80 % 0.00 in /  0 mm
00:10 44.7 °F /  7.1 °C 39.2 °F /  4 °C 29.86 in /  1011.1 hPa Calm     81 % 0.00 in /  0 mm
00:15 44.5 °F /  6.9 °C 39.0 °F /  3.9 °C 29.86 in /  1011.1 hPa Calm     81 % 0.00 in /  0 mm
00:20 44.4 °F /  6.9 °C 38.9 °F /  3.8 °C 29.86 in /  1011.1 hPa Calm     81 % 0.00 in /  0 mm
00:25 44.3 °F /  6.8 °C 39.2 °F /  4 °C 29.87 in /  1011.4 hPa Calm     82 % 0.00 in /  0 mm
00:30 44.2 °F /  6.8 °C 39.1 °F /  3.9 °C 29.87 in /  1011.4 hPa Calm     82 % 0.00 in /  0 mm
00:35 44.1 °F /  6.7 °C 39.0 °F /  3.9 °C 29.87 in /  1011.4 hPa Calm     82 % 0.00 in /  0 mm
00:40 43.9 °F /  6.6 °C 39.1 °F /  3.9 °C 29.87 in /  1011.4 hPa Calm     83 % 0.00 in /  0 mm
00:45 43.6 °F /  6.4 °C 38.8 °F /  3.8 °C 29.88 in /  1011.7 hPa Calm     83 % 0.00 in /  0 mm
00:50 43.4 °F /  6.3 °C 38.6 °F /  3.7 °C 29.88 in /  1011.7 hPa SE 1.0 mph /  1.6 km/h   83 % 0.00 in /  0 mm
00:55 43.4 °F /  6.3 °C 38.9 °F /  3.8 °C 29.88 in /  1011.7 hPa SE 1.2 mph /  1.9 km/h   84 % 0.00 in /  0 mm
01:00 43.2 °F /  6.2 °C 38.7 °F /  3.7 °C 29.88 in /  1011.7 hPa Calm     84 % 0.00 in /  0 mm
01:05 43.1 °F /  6.2 °C 38.6 °F /  3.7 °C 29.88 in /  1011.7 hPa Calm     84 % 0.00 in /  0 mm
01:10 42.9 °F /  6.1 °C 38.4 °F /  3.6 °C 29.88 in /  1011.7 hPa Calm     84 % 0.00 in /  0 mm
01:15 42.8 °F /  6 °C 38.3 °F /  3.5 °C 29.88 in /  1011.7 hPa Calm     84 % 0.00 in /  0 mm
01:20 42.7 °F /  5.9 °C 38.5 °F /  3.6 °C 29.88 in /  1011.7 hPa Calm   0.1 mph /  0.2 km/h 85 % 0.00 in /  0 mm
01:25 42.5 °F /  5.8 °C 38.3 °F /  3.5 °C 29.88 in /  1011.7 hPa Calm     85 % 0.00 in /  0 mm
01:30 42.2 °F /  5.7 °C 38.0 °F /  3.3 °C 29.88 in /  1011.7 hPa Calm     85 % 0.00 in /  0 mm
01:35 42.0 °F /  5.6 °C 37.8 °F /  3.2 °C 29.88 in /  1011.7 hPa Calm     85 % 0.00 in /  0 mm
01:40 41.7 °F /  5.4 °C 37.8 °F /  3.2 °C 29.88 in /  1011.7 hPa Calm     86 % 0.00 in /  0 mm
01:45 41.6 °F /  5.3 °C 37.7 °F /  3.2 °C 29.88 in /  1011.7 hPa Calm     86 % 0.00 in /  0 mm
01:50 41.4 °F /  5.2 °C 37.5 °F /  3.1 °C 29.88 in /  1011.7 hPa Calm     86 % 0.00 in /  0 mm
01:55 41.2 °F /  5.1 °C 37.6 °F /  3.1 °C 29.88 in /  1011.7 hPa Calm     87 % 0.00 in /  0 mm
02:00 41.1 °F /  5.1 °C 37.5 °F /  3.1 °C 29.88 in /  1011.7 hPa Calm     87 % 0.00 in /  0 mm
02:05 41.2 °F /  5.1 °C 37.6 °F /  3.1 °C 29.88 in /  1011.7 hPa SE 6.9 mph /  11.1 km/h   87 % 0.00 in /  0 mm
02:10 41.3 °F /  5.2 °C 37.7 °F /  3.2 °C 29.87 in /  1011.4 hPa Calm     87 % 0.00 in /  0 mm
02:15 41.3 °F /  5.2 °C 37.7 °F /  3.2 °C 29.87 in /  1011.4 hPa Calm     87 % 0.00 in /  0 mm
02:20 41.3 °F /  5.2 °C 37.7 °F /  3.2 °C 29.87 in /  1011.4 hPa Calm     87 % 0.00 in /  0 mm
02:25 41.3 °F /  5.2 °C 37.7 °F /  3.2 °C 29.87 in /  1011.4 hPa Calm     87 % 0.00 in /  0 mm
02:30 41.4 °F /  5.2 °C 37.5 °F /  3.1 °C 29.87 in /  1011.4 hPa Calm     86 % 0.00 in /  0 mm
02:35 41.3 °F /  5.2 °C 37.7 °F /  3.2 °C 29.87 in /  1011.4 hPa Calm     87 % 0.00 in /  0 mm
02:40 41.3 °F /  5.2 °C 37.7 °F /  3.2 °C 29.86 in /  1011.1 hPa Calm     87 % 0.00 in /  0 mm
02:45 41.3 °F /  5.2 °C 37.7 °F /  3.2 °C 29.86 in /  1011.1 hPa Calm     87 % 0.00 in /  0 mm
02:50 41.1 °F /  5.1 °C 37.5 °F /  3.1 °C 29.86 in /  1011.1 hPa Calm     87 % 0.00 in /  0 mm
02:55 41.1 °F /  5.1 °C 37.5 °F /  3.1 °C 29.86 in /  1011.1 hPa Calm     87 % 0.00 in /  0 mm
03:00 41.1 °F /  5.1 °C 37.5 °F /  3.1 °C 29.86 in /  1011.1 hPa Calm     87 % 0.00 in /  0 mm
03:05 40.8 °F /  4.9 °C 37.2 °F /  2.9 °C 29.86 in /  1011.1 hPa Calm     87 % 0.00 in /  0 mm
03:10 40.6 °F /  4.8 °C 37.0 °F /  2.8 °C 29.85 in /  1010.7 hPa Calm     87 % 0.00 in /  0 mm
03:14 40.5 °F /  4.7 °C 37.2 °F /  2.9 °C 29.85 in /  1010.7 hPa Calm     88 % 0.00 in /  0 mm
03:19 40.3 °F /  4.6 °C 37.0 °F /  2.8 °C 29.85 in /  1010.7 hPa Calm     88 % 0.00 in /  0 mm
03:24 40.0 °F /  4.4 °C 36.7 °F /  2.6 °C 29.85 in /  1010.7 hPa Calm     88 % 0.00 in /  0 mm
03:29 39.7 °F /  4.3 °C 36.1 °F /  2.3 °C 29.85 in /  1010.7 hPa Calm     87 % 0.00 in /  0 mm
03:34 39.5 °F /  4.2 °C 36.5 °F /  2.5 °C 29.85 in /  1010.7 hPa SE 1.2 mph /  1.9 km/h 1.2 mph /  1.9 km/h 89 % 0.00 in /  0 mm
03:39 39.7 °F /  4.3 °C 36.7 °F /  2.6 °C 29.85 in /  1010.7 hPa Calm     89 % 0.00 in /  0 mm
03:44 39.8 °F /  4.3 °C 36.5 °F /  2.5 °C 29.85 in /  1010.7 hPa Calm     88 % 0.00 in /  0 mm
03:49 39.6 °F /  4.2 °C 36.3 °F /  2.4 °C 29.85 in /  1010.7 hPa Calm     88 % 0.00 in /  0 mm
03:54 39.4 °F /  4.1 °C 36.1 °F /  2.3 °C 29.85 in /  1010.7 hPa Calm     88 % 0.00 in /  0 mm
03:59 39.8 °F /  4.3 °C 36.8 °F /  2.7 °C 29.85 in /  1010.7 hPa Calm     89 % 0.00 in /  0 mm
04:04 40.1 °F /  4.5 °C 37.1 °F /  2.8 °C 29.84 in /  1010.4 hPa Calm     89 % 0.00 in /  0 mm
04:09 40.0 °F /  4.4 °C 36.7 °F /  2.6 °C 29.84 in /  1010.4 hPa Calm     88 % 0.00 in /  0 mm
04:14 39.7 °F /  4.3 °C 36.4 °F /  2.4 °C 29.84 in /  1010.4 hPa Calm     88 % 0.00 in /  0 mm
04:19 39.5 °F /  4.2 °C 36.2 °F /  2.3 °C 29.84 in /  1010.4 hPa Calm     88 % 0.00 in /  0 mm
04:24 39.3 °F /  4.1 °C 36.3 °F /  2.4 °C 29.84 in /  1010.4 hPa Calm     89 % 0.00 in /  0 mm
04:29 38.9 °F /  3.8 °C 35.6 °F /  2 °C 29.84 in /  1010.4 hPa Calm     88 % 0.00 in /  0 mm
04:34 38.8 °F /  3.8 °C 35.8 °F /  2.1 °C 29.84 in /  1010.4 hPa Calm     89 % 0.00 in /  0 mm
04:39 38.7 °F /  3.7 °C 35.5 °F /  1.9 °C 29.84 in /  1010.4 hPa Calm     88 % 0.00 in /  0 mm
04:44 38.9 °F /  3.8 °C 35.9 °F /  2.2 °C 29.84 in /  1010.4 hPa Calm     89 % 0.00 in /  0 mm
04:49 38.9 °F /  3.8 °C 35.9 °F /  2.2 °C 29.84 in /  1010.4 hPa Calm     89 % 0.00 in /  0 mm
04:55 38.9 °F /  3.8 °C 35.9 °F /  2.2 °C 29.84 in /  1010.4 hPa Calm     89 % 0.00 in /  0 mm
05:00 38.9 °F /  3.8 °C 35.9 °F /  2.2 °C 29.84 in /  1010.4 hPa Calm     89 % 0.00 in /  0 mm
05:05 38.3 °F /  3.5 °C 35.1 °F /  1.7 °C 29.84 in /  1010.4 hPa Calm     88 % 0.00 in /  0 mm
05:10 38.0 °F /  3.3 °C 35.0 °F /  1.7 °C 29.84 in /  1010.4 hPa Calm     89 % 0.00 in /  0 mm
05:15 37.8 °F /  3.2 °C 34.8 °F /  1.6 °C 29.85 in /  1010.7 hPa Calm     89 % 0.00 in /  0 mm
05:20 37.7 °F /  3.2 °C 35.0 °F /  1.7 °C 29.85 in /  1010.7 hPa Calm     90 % 0.00 in /  0 mm
05:25 37.5 °F /  3.1 °C 34.8 °F /  1.6 °C 29.85 in /  1010.7 hPa Calm     90 % 0.00 in /  0 mm
05:30 37.2 °F /  2.9 °C 34.3 °F /  1.3 °C 29.85 in /  1010.7 hPa Calm     89 % 0.00 in /  0 mm
05:35 36.8 °F /  2.7 °C 33.9 °F /  1.1 °C 29.85 in /  1010.7 hPa Calm     89 % 0.00 in /  0 mm
05:40 36.6 °F /  2.6 °C 33.9 °F /  1.1 °C 29.85 in /  1010.7 hPa Calm     90 % 0.00 in /  0 mm
05:45 36.4 °F /  2.4 °C 33.7 °F /  0.9 °C 29.86 in /  1011.1 hPa Calm     90 % 0.00 in /  0 mm
05:50 36.7 °F /  2.6 °C 34.3 °F /  1.3 °C 29.86 in /  1011.1 hPa Calm     91 % 0.00 in /  0 mm
05:55 36.9 °F /  2.7 °C 34.5 °F /  1.4 °C 29.86 in /  1011.1 hPa Calm     91 % 0.00 in /  0 mm
06:00 37.2 °F /  2.9 °C 34.8 °F /  1.6 °C 29.87 in /  1011.4 hPa Calm     91 % 0.00 in /  0 mm
06:05 37.3 °F /  2.9 °C 34.9 °F /  1.6 °C 29.87 in /  1011.4 hPa Calm     91 % 0.00 in /  0 mm
06:10 37.6 °F /  3.1 °C 35.2 °F /  1.8 °C 29.87 in /  1011.4 hPa Calm     91 % 0.00 in /  0 mm
06:15 38.1 °F /  3.4 °C 35.7 °F /  2.1 °C 29.87 in /  1011.4 hPa Calm     91 % 0.00 in /  0 mm
06:20 38.5 °F /  3.6 °C 36.1 °F /  2.3 °C 29.88 in /  1011.7 hPa Calm     91 % 0.00 in /  0 mm
06:25 38.9 °F /  3.8 °C 36.5 °F /  2.5 °C 29.88 in /  1011.7 hPa Calm   0.1 mph /  0.2 km/h 91 % 0.00 in /  0 mm
06:30 39.4 °F /  4.1 °C 37.0 °F /  2.8 °C 29.88 in /  1011.7 hPa SE 1.2 mph /  1.9 km/h   91 % 0.00 in /  0 mm
06:35 39.9 °F /  4.4 °C 37.2 °F /  2.9 °C 29.88 in /  1011.7 hPa SE 1.2 mph /  1.9 km/h   90 % 0.00 in /  0 mm
06:40 40.3 °F /  4.6 °C 37.6 °F /  3.1 °C 29.88 in /  1011.7 hPa Calm     90 % 0.00 in /  0 mm
06:45 40.6 °F /  4.8 °C 37.9 °F /  3.3 °C 29.88 in /  1011.7 hPa SE 1.2 mph /  1.9 km/h 1.2 mph /  1.9 km/h 90 % 0.00 in /  0 mm
06:50 40.9 °F /  4.9 °C 38.2 °F /  3.4 °C 29.88 in /  1011.7 hPa Calm     90 % 0.00 in /  0 mm
06:55 41.1 °F /  5.1 °C 38.4 °F /  3.6 °C 29.88 in /  1011.7 hPa SE 1.2 mph /  1.9 km/h   90 % 0.00 in /  0 mm
07:00 41.3 °F /  5.2 °C 38.6 °F /  3.7 °C 29.88 in /  1011.7 hPa Calm     90 % 0.00 in /  0 mm
07:05 41.5 °F /  5.3 °C 38.8 °F /  3.8 °C 29.88 in /  1011.7 hPa SE 1.2 mph /  1.9 km/h   90 % 0.00 in /  0 mm
07:10 41.7 °F /  5.4 °C 39.0 °F /  3.9 °C 29.89 in /  1012.1 hPa SE 1.2 mph /  1.9 km/h   90 % 0.00 in /  0 mm
07:15 41.9 °F /  5.5 °C 38.9 °F /  3.8 °C 29.89 in /  1012.1 hPa Calm     89 % 0.00 in /  0 mm
07:20 42.1 °F /  5.6 °C 39.1 °F /  3.9 °C 29.89 in /  1012.1 hPa Calm     89 % 0.00 in /  0 mm
07:25 42.3 °F /  5.7 °C 39.3 °F /  4.1 °C 29.89 in /  1012.1 hPa SE 3.0 mph /  4.8 km/h 3.0 mph /  4.8 km/h 89 % 0.00 in /  0 mm
07:30 42.5 °F /  5.8 °C 39.5 °F /  4.2 °C 29.88 in /  1011.7 hPa SE 1.2 mph /  1.9 km/h 1.2 mph /  1.9 km/h 89 % 0.00 in /  0 mm
07:35 42.7 °F /  5.9 °C 39.7 °F /  4.3 °C 29.88 in /  1011.7 hPa SE 1.2 mph /  1.9 km/h 1.2 mph /  1.9 km/h 89 % 0.00 in /  0 mm
07:40 42.9 °F /  6.1 °C 39.9 °F /  4.4 °C 29.88 in /  1011.7 hPa SE 1.2 mph /  1.9 km/h 1.2 mph /  1.9 km/h 89 % 0.00 in /  0 mm
07:45 43.1 °F /  6.2 °C 40.1 °F /  4.5 °C 29.88 in /  1011.7 hPa Calm     89 % 0.00 in /  0 mm
07:50 43.5 °F /  6.4 °C 40.2 °F /  4.6 °C 29.88 in /  1011.7 hPa SE 1.2 mph /  1.9 km/h 1.2 mph /  1.9 km/h 88 % 0.00 in /  0 mm
07:55 43.8 °F /  6.6 °C 40.5 °F /  4.7 °C 29.88 in /  1011.7 hPa SE 1.2 mph /  1.9 km/h   88 % 0.00 in /  0 mm
08:00 44.1 °F /  6.7 °C 40.8 °F /  4.9 °C 29.89 in /  1012.1 hPa Calm     88 % 0.00 in /  0 mm
08:05 44.5 °F /  6.9 °C 41.2 °F /  5.1 °C 29.88 in /  1011.7 hPa Calm     88 % 0.00 in /  0 mm
08:10 44.9 °F /  7.2 °C 41.3 °F /  5.2 °C 29.89 in /  1012.1 hPa SE 1.2 mph /  1.9 km/h   87 % 0.00 in /  0 mm
08:15 45.3 °F /  7.4 °C 41.7 °F /  5.4 °C 29.89 in /  1012.1 hPa Calm     87 % 0.00 in /  0 mm
08:20 45.7 °F /  7.6 °C 41.8 °F /  5.4 °C 29.89 in /  1012.1 hPa SE 1.2 mph /  1.9 km/h 1.2 mph /  1.9 km/h 86 % 0.00 in /  0 mm
08:25 46.1 °F /  7.8 °C 42.1 °F /  5.6 °C 29.89 in /  1012.1 hPa SE 1.2 mph /  1.9 km/h   86 % 0.00 in /  0 mm
08:30 46.4 °F /  8 °C 42.1 °F /  5.6 °C 29.89 in /  1012.1 hPa SE 1.2 mph /  1.9 km/h 1.2 mph /  1.9 km/h 85 % 0.00 in /  0 mm
08:35 46.8 °F /  8.2 °C 42.2 °F /  5.7 °C 29.89 in /  1012.1 hPa SE 2.0 mph /  3.2 km/h 2.0 mph /  3.2 km/h 84 % 0.00 in /  0 mm
08:41 47.1 °F /  8.4 °C 42.2 °F /  5.7 °C 29.89 in /  1012.1 hPa SE 1.0 mph /  1.6 km/h 1.0 mph /  1.6 km/h 83 % 0.00 in /  0 mm
08:46 47.4 °F /  8.6 °C 41.9 °F /  5.5 °C 29.89 in /  1012.1 hPa ESE 3.5 mph /  5.6 km/h 3.5 mph /  5.6 km/h 81 % 0.00 in /  0 mm
08:51 47.8 °F /  8.8 °C 41.9 °F /  5.5 °C 29.89 in /  1012.1 hPa ESE 1.0 mph /  1.6 km/h   80 % 0.00 in /  0 mm
08:56 48.2 °F /  9 °C 42.3 °F /  5.7 °C 29.89 in /  1012.1 hPa Calm     80 % 0.00 in /  0 mm
09:01 48.4 °F /  9.1 °C 41.9 °F /  5.5 °C 29.89 in /  1012.1 hPa ESE 1.2 mph /  1.9 km/h   78 % 0.00 in /  0 mm
09:06 48.6 °F /  9.2 °C 42.0 °F /  5.6 °C 29.90 in /  1012.4 hPa ESE 1.2 mph /  1.9 km/h 1.2 mph /  1.9 km/h 78 % 0.00 in /  0 mm
09:11 48.9 °F /  9.4 °C 42.0 °F /  5.6 °C 29.90 in /  1012.4 hPa ESE 1.2 mph /  1.9 km/h 1.2 mph /  1.9 km/h 77 % 0.00 in /  0 mm
09:16 49.0 °F /  9.4 °C 41.8 °F /  5.4 °C 29.90 in /  1012.4 hPa ESE 1.2 mph /  1.9 km/h 1.2 mph /  1.9 km/h 76 % 0.00 in /  0 mm
09:21 49.0 °F /  9.4 °C 41.8 °F /  5.4 °C 29.90 in /  1012.4 hPa ESE 1.2 mph /  1.9 km/h 1.2 mph /  1.9 km/h 76 % 0.00 in /  0 mm
09:26 49.1 °F /  9.5 °C 41.5 °F /  5.3 °C 29.90 in /  1012.4 hPa Calm     75 % 0.00 in /  0 mm
09:31 49.1 °F /  9.5 °C 41.9 °F /  5.5 °C 29.90 in /  1012.4 hPa Calm     76 % 0.00 in /  0 mm
09:36 49.2 °F /  9.6 °C 42.0 °F /  5.6 °C 29.90 in /  1012.4 hPa Calm     76 % 0.00 in /  0 mm
09:41 49.2 °F /  9.6 °C 41.6 °F /  5.3 °C 29.90 in /  1012.4 hPa ESE 1.2 mph /  1.9 km/h 1.2 mph /  1.9 km/h 75 % 0.00 in /  0 mm
09:46 49.2 °F /  9.6 °C 42.0 °F /  5.6 °C 29.90 in /  1012.4 hPa Calm     76 % 0.00 in /  0 mm
09:51 49.3 °F /  9.6 °C 42.1 °F /  5.6 °C 29.90 in /  1012.4 hPa Calm     76 % 0.00 in /  0 mm
09:56 49.4 °F /  9.7 °C 42.1 °F /  5.6 °C 29.90 in /  1012.4 hPa Calm     76 % 0.00 in /  0 mm
10:01 49.5 °F /  9.7 °C 41.9 °F /  5.5 °C 29.91 in /  1012.8 hPa ESE 1.2 mph /  1.9 km/h 1.2 mph /  1.9 km/h 75 % 0.00 in /  0 mm
10:06 49.5 °F /  9.7 °C 41.9 °F /  5.5 °C 29.91 in /  1012.8 hPa ESE 1.2 mph /  1.9 km/h 1.2 mph /  1.9 km/h 75 % 0.00 in /  0 mm
10:11 49.6 °F /  9.8 °C 42.0 °F /  5.6 °C 29.91 in /  1012.8 hPa ESE 1.2 mph /  1.9 km/h   75 % 0.00 in /  0 mm
10:16 49.6 °F /  9.8 °C 42.0 °F /  5.6 °C 29.91 in /  1012.8 hPa ESE 1.2 mph /  1.9 km/h   75 % 0.00 in /  0 mm
10:21 49.8 °F /  9.9 °C 42.2 °F /  5.7 °C 29.91 in /  1012.8 hPa ESE 1.2 mph /  1.9 km/h   75 % 0.00 in /  0 mm
10:26 49.9 °F /  9.9 °C 41.9 °F /  5.5 °C 29.91 in /  1012.8 hPa Calm     74 % 0.00 in /  0 mm
10:31 50.0 °F /  10 °C 42.4 °F /  5.8 °C 29.91 in /  1012.8 hPa Calm     75 % 0.00 in /  0 mm
10:36 50.2 °F /  10.1 °C 42.2 °F /  5.7 °C 29.91 in /  1012.8 hPa Calm     74 % 0.00 in /  0 mm
10:41 50.5 °F /  10.3 °C 42.5 °F /  5.8 °C 29.91 in /  1012.8 hPa Calm     74 % 0.00 in /  0 mm
10:46 50.8 °F /  10.4 °C 42.5 °F /  5.8 °C 29.91 in /  1012.8 hPa East 1.2 mph /  1.9 km/h   73 % 0.00 in /  0 mm
10:51 51.0 °F /  10.6 °C 42.6 °F /  5.9 °C 29.90 in /  1012.4 hPa Calm     73 % 0.00 in /  0 mm
10:56 51.3 °F /  10.7 °C 42.2 °F /  5.7 °C 29.90 in /  1012.4 hPa Calm     71 % 0.00 in /  0 mm
11:01 51.5 °F /  10.8 °C 42.8 °F /  6 °C 29.90 in /  1012.4 hPa Calm     72 % 0.00 in /  0 mm
11:06 51.9 °F /  11.1 °C 42.4 °F /  5.8 °C 29.90 in /  1012.4 hPa Calm     70 % 0.00 in /  0 mm
11:11 52.0 °F /  11.1 °C 42.5 °F /  5.8 °C 29.90 in /  1012.4 hPa Calm     70 % 0.00 in /  0 mm
11:16 52.5 °F /  11.4 °C 43.0 °F /  6.1 °C 29.90 in /  1012.4 hPa SSE 1.2 mph /  1.9 km/h   70 % 0.00 in /  0 mm
11:21 52.9 °F /  11.6 °C 43.0 °F /  6.1 °C 29.90 in /  1012.4 hPa Calm     69 % 0.00 in /  0 mm
11:26 53.1 °F /  11.7 °C 42.8 °F /  6 °C 29.90 in /  1012.4 hPa South 2.3 mph /  3.7 km/h   68 % 0.00 in /  0 mm
11:31 53.3 °F /  11.8 °C 42.6 °F /  5.9 °C 29.90 in /  1012.4 hPa Calm   0.2 mph /  0.3 km/h 67 % 0.00 in /  0 mm
11:36 53.7 °F /  12.1 °C 43.4 °F /  6.3 °C 29.90 in /  1012.4 hPa NW 1.2 mph /  1.9 km/h 1.2 mph /  1.9 km/h 68 % 0.00 in /  0 mm
11:41 54.2 °F /  12.3 °C 42.7 °F /  5.9 °C 29.89 in /  1012.1 hPa WNW 2.3 mph /  3.7 km/h 2.3 mph /  3.7 km/h 65 % 0.00 in /  0 mm
11:46 54.7 °F /  12.6 °C 42.8 °F /  6 °C 29.89 in /  1012.1 hPa NW 2.3 mph /  3.7 km/h 2.3 mph /  3.7 km/h 64 % 0.00 in /  0 mm
11:51 55.5 °F /  13.1 °C 44.3 °F /  6.8 °C 29.89 in /  1012.1 hPa South 2.3 mph /  3.7 km/h 2.3 mph /  3.7 km/h 66 % 0.00 in /  0 mm
11:56 55.9 °F /  13.3 °C 42.6 °F /  5.9 °C 29.88 in /  1011.7 hPa Calm     61 % 0.00 in /  0 mm
12:01 55.9 °F /  13.3 °C 42.6 °F /  5.9 °C 29.88 in /  1011.7 hPa NW 2.3 mph /  3.7 km/h 2.3 mph /  3.7 km/h 61 % 0.00 in /  0 mm
12:06 55.5 °F /  13.1 °C 42.3 °F /  5.7 °C 29.88 in /  1011.7 hPa Calm     61 % 0.00 in /  0 mm
12:11 56.2 °F /  13.4 °C 44.2 °F /  6.8 °C 29.88 in /  1011.7 hPa Calm     64 % 0.00 in /  0 mm
12:16 57.0 °F /  13.9 °C 44.1 °F /  6.7 °C 29.88 in /  1011.7 hPa Calm     62 % 0.00 in /  0 mm
12:21 57.4 °F /  14.1 °C 43.2 °F /  6.2 °C 29.88 in /  1011.7 hPa NW 2.3 mph /  3.7 km/h 2.3 mph /  3.7 km/h 59 % 0.00 in /  0 mm
12:26 56.9 °F /  13.8 °C 44.0 °F /  6.7 °C 29.87 in /  1011.4 hPa SE 1.2 mph /  1.9 km/h 1.2 mph /  1.9 km/h 62 % 0.00 in /  0 mm
12:30 56.9 °F /  13.8 °C 42.3 °F /  5.7 °C 29.87 in /  1011.4 hPa East 3.0 mph /  4.8 km/h 3.0 mph /  4.8 km/h 58 % 0.00 in /  0 mm
12:35 56.8 °F /  13.8 °C 41.7 °F /  5.4 °C 29.87 in /  1011.4 hPa ENE 3.5 mph /  5.6 km/h 3.5 mph /  5.6 km/h 57 % 0.00 in /  0 mm
12:40 56.6 °F /  13.7 °C 42.4 °F /  5.8 °C 29.87 in /  1011.4 hPa NNE 1.2 mph /  1.9 km/h 1.2 mph /  1.9 km/h 59 % 0.00 in /  0 mm
12:45 56.4 °F /  13.6 °C 42.2 °F /  5.7 °C 29.87 in /  1011.4 hPa WNW 3.5 mph /  5.6 km/h 3.5 mph /  5.6 km/h 59 % 0.00 in /  0 mm
12:50 56.2 °F /  13.4 °C 42.1 °F /  5.6 °C 29.86 in /  1011.1 hPa NW 3.5 mph /  5.6 km/h 3.5 mph /  5.6 km/h 59 % 0.00 in /  0 mm
12:55 56.2 °F /  13.4 °C 42.1 °F /  5.6 °C 29.86 in /  1011.1 hPa West 1.2 mph /  1.9 km/h   59 % 0.00 in /  0 mm
13:00 56.7 °F /  13.7 °C 42.1 °F /  5.6 °C 29.86 in /  1011.1 hPa WNW 2.3 mph /  3.7 km/h 2.3 mph /  3.7 km/h 58 % 0.00 in /  0 mm
13:05 56.8 °F /  13.8 °C 41.3 °F /  5.2 °C 29.86 in /  1011.1 hPa WNW 3.5 mph /  5.6 km/h 3.5 mph /  5.6 km/h 56 % 0.00 in /  0 mm
13:10 56.6 °F /  13.7 °C 41.5 °F /  5.3 °C 29.86 in /  1011.1 hPa East 1.2 mph /  1.9 km/h 1.2 mph /  1.9 km/h 57 % 0.00 in /  0 mm
13:15 57.0 °F /  13.9 °C 41.9 °F /  5.5 °C 29.86 in /  1011.1 hPa NW 3.5 mph /  5.6 km/h 3.5 mph /  5.6 km/h 57 % 0.00 in /  0 mm
13:21 57.4 °F /  14.1 °C 41.8 °F /  5.4 °C 29.86 in /  1011.1 hPa NW 3.5 mph /  5.6 km/h 3.5 mph /  5.6 km/h 56 % 0.00 in /  0 mm
13:26 57.3 °F /  14.1 °C 41.7 °F /  5.4 °C 29.86 in /  1011.1 hPa WNW 3.5 mph /  5.6 km/h 3.5 mph /  5.6 km/h 56 % 0.00 in /  0 mm
13:31 56.6 °F /  13.7 °C 42.0 °F /  5.6 °C 29.86 in /  1011.1 hPa NW 3.5 mph /  5.6 km/h 3.5 mph /  5.6 km/h 58 % 0.00 in /  0 mm
13:36 56.2 °F /  13.4 °C 41.6 °F /  5.3 °C 29.86 in /  1011.1 hPa NW 2.0 mph /  3.2 km/h 2.0 mph /  3.2 km/h 58 % 0.00 in /  0 mm
13:41 56.4 °F /  13.6 °C 41.8 °F /  5.4 °C 29.86 in /  1011.1 hPa NW 4.0 mph /  6.4 km/h 4.0 mph /  6.4 km/h 58 % 0.00 in /  0 mm
13:46 56.1 °F /  13.4 °C 41.5 °F /  5.3 °C 29.86 in /  1011.1 hPa NW 2.3 mph /  3.7 km/h 2.3 mph /  3.7 km/h 58 % 0.00 in /  0 mm
13:51 55.9 °F /  13.3 °C 41.8 °F /  5.4 °C 29.86 in /  1011.1 hPa NW 1.2 mph /  1.9 km/h   59 % 0.00 in /  0 mm
13:56 56.1 °F /  13.4 °C 42.0 °F /  5.6 °C 29.86 in /  1011.1 hPa NW 3.5 mph /  5.6 km/h 3.5 mph /  5.6 km/h 59 % 0.00 in /  0 mm
14:01 56.4 °F /  13.6 °C 42.2 °F /  5.7 °C 29.86 in /  1011.1 hPa NE 2.3 mph /  3.7 km/h 2.3 mph /  3.7 km/h 59 % 0.00 in /  0 mm
14:06 56.3 °F /  13.5 °C 41.7 °F /  5.4 °C 29.86 in /  1011.1 hPa Calm     58 % 0.00 in /  0 mm
14:11 56.3 °F /  13.5 °C 42.6 °F /  5.9 °C 29.86 in /  1011.1 hPa NW 1.2 mph /  1.9 km/h 1.2 mph /  1.9 km/h 60 % 0.00 in /  0 mm
14:16 56.1 °F /  13.4 °C 42.0 °F /  5.6 °C 29.86 in /  1011.1 hPa NW 2.3 mph /  3.7 km/h 2.3 mph /  3.7 km/h 59 % 0.00 in /  0 mm
14:21 55.9 °F /  13.3 °C 41.8 °F /  5.4 °C 29.86 in /  1011.1 hPa WSW 2.3 mph /  3.7 km/h 2.3 mph /  3.7 km/h 59 % 0.00 in /  0 mm
14:26 55.8 °F /  13.2 °C 42.1 °F /  5.6 °C 29.86 in /  1011.1 hPa NW 1.2 mph /  1.9 km/h 1.2 mph /  1.9 km/h 60 % 0.00 in /  0 mm
14:31 55.8 °F /  13.2 °C 41.7 °F /  5.4 °C 29.86 in /  1011.1 hPa NNW 3.5 mph /  5.6 km/h 3.5 mph /  5.6 km/h 59 % 0.00 in /  0 mm
14:36 55.8 °F /  13.2 °C 41.7 °F /  5.4 °C 29.86 in /  1011.1 hPa NNW 1.0 mph /  1.6 km/h 1.0 mph /  1.6 km/h 59 % 0.00 in /  0 mm
14:41 55.8 °F /  13.2 °C 41.7 °F /  5.4 °C 29.86 in /  1011.1 hPa NW 3.5 mph /  5.6 km/h 3.5 mph /  5.6 km/h 59 % 0.00 in /  0 mm
14:46 55.7 °F /  13.2 °C 41.6 °F /  5.3 °C 29.86 in /  1011.1 hPa WNW 2.3 mph /  3.7 km/h 2.3 mph /  3.7 km/h 59 % 0.00 in /  0 mm
14:51 55.6 °F /  13.1 °C 41.5 °F /  5.3 °C 29.86 in /  1011.1 hPa NW 1.2 mph /  1.9 km/h 1.2 mph /  1.9 km/h 59 % 0.00 in /  0 mm
14:56 55.5 °F /  13.1 °C 41.0 °F /  5 °C 29.86 in /  1011.1 hPa NNW 2.3 mph /  3.7 km/h 2.3 mph /  3.7 km/h 58 % 0.00 in /  0 mm
15:01 55.5 °F /  13.1 °C 41.0 °F /  5 °C 29.86 in /  1011.1 hPa NNW 2.0 mph /  3.2 km/h 2.0 mph /  3.2 km/h 58 % 0.00 in /  0 mm
15:06 55.6 °F /  13.1 °C 41.0 °F /  5 °C 29.86 in /  1011.1 hPa NW 2.3 mph /  3.7 km/h 2.3 mph /  3.7 km/h 58 % 0.00 in /  0 mm
15:11 55.7 °F /  13.2 °C 41.1 °F /  5.1 °C 29.86 in /  1011.1 hPa WNW 2.3 mph /  3.7 km/h 2.3 mph /  3.7 km/h 58 % 0.00 in /  0 mm
15:16 55.9 °F /  13.3 °C 41.3 °F /  5.2 °C 29.86 in /  1011.1 hPa NW 3.5 mph /  5.6 km/h 3.5 mph /  5.6 km/h 58 % 0.00 in /  0 mm
15:21 55.9 °F /  13.3 °C 41.3 °F /  5.2 °C 29.86 in /  1011.1 hPa NNW 3.5 mph /  5.6 km/h 3.5 mph /  5.6 km/h 58 % 0.00 in /  0 mm
15:26 55.9 °F /  13.3 °C 41.3 °F /  5.2 °C 29.86 in /  1011.1 hPa NW 2.3 mph /  3.7 km/h 2.3 mph /  3.7 km/h 58 % 0.00 in /  0 mm
15:31 55.8 °F /  13.2 °C 40.8 °F /  4.9 °C 29.86 in /  1011.1 hPa NW 2.3 mph /  3.7 km/h 2.3 mph /  3.7 km/h 57 % 0.00 in /  0 mm
15:36 55.9 °F /  13.3 °C 42.2 °F /  5.7 °C 29.86 in /  1011.1 hPa NW 3.5 mph /  5.6 km/h 3.5 mph /  5.6 km/h 60 % 0.00 in /  0 mm
15:41 55.7 °F /  13.2 °C 42.0 °F /  5.6 °C 29.86 in /  1011.1 hPa NW 4.0 mph /  6.4 km/h 4.0 mph /  6.4 km/h 60 % 0.00 in /  0 mm
15:46 55.4 °F /  13 °C 41.7 °F /  5.4 °C 29.86 in /  1011.1 hPa NW 1.2 mph /  1.9 km/h 1.2 mph /  1.9 km/h 60 % 0.00 in /  0 mm
15:51 55.4 °F /  13 °C 41.7 °F /  5.4 °C 29.86 in /  1011.1 hPa Calm     60 % 0.00 in /  0 mm
15:56 55.2 °F /  12.9 °C 41.5 °F /  5.3 °C 29.86 in /  1011.1 hPa NW 1.2 mph /  1.9 km/h 1.2 mph /  1.9 km/h 60 % 0.00 in /  0 mm
16:01 55.1 °F /  12.8 °C 41.5 °F /  5.3 °C 29.86 in /  1011.1 hPa NW 1.2 mph /  1.9 km/h 1.2 mph /  1.9 km/h 60 % 0.00 in /  0 mm
16:06 55.1 °F /  12.8 °C 41.0 °F /  5 °C 29.86 in /  1011.1 hPa NW 1.2 mph /  1.9 km/h 1.2 mph /  1.9 km/h 59 % 0.00 in /  0 mm
16:11 55.1 °F /  12.8 °C 41.0 °F /  5 °C 29.87 in /  1011.4 hPa NW 2.3 mph /  3.7 km/h 2.3 mph /  3.7 km/h 59 % 0.00 in /  0 mm
16:16 55.2 °F /  12.9 °C 41.5 °F /  5.3 °C 29.87 in /  1011.4 hPa NW 1.2 mph /  1.9 km/h 1.2 mph /  1.9 km/h 60 % 0.00 in /  0 mm
16:21 55.3 °F /  12.9 °C 40.8 °F /  4.9 °C 29.87 in /  1011.4 hPa NW 3.5 mph /  5.6 km/h 3.5 mph /  5.6 km/h 58 % 0.00 in /  0 mm
16:26 55.2 °F /  12.9 °C 41.1 °F /  5.1 °C 29.87 in /  1011.4 hPa NW 4.0 mph /  6.4 km/h 4.0 mph /  6.4 km/h 59 % 0.00 in /  0 mm
16:31 55.1 °F /  12.8 °C 41.0 °F /  5 °C 29.87 in /  1011.4 hPa NW 3.5 mph /  5.6 km/h 3.5 mph /  5.6 km/h 59 % 0.00 in /  0 mm
16:36 55.1 °F /  12.8 °C 41.0 °F /  5 °C 29.87 in /  1011.4 hPa NW 3.5 mph /  5.6 km/h 3.5 mph /  5.6 km/h 59 % 0.00 in /  0 mm
16:41 55.1 °F /  12.8 °C 41.5 °F /  5.3 °C 29.87 in /  1011.4 hPa NW 2.3 mph /  3.7 km/h 2.3 mph /  3.7 km/h 60 % 0.00 in /  0 mm
16:47 55.1 °F /  12.8 °C 41.5 °F /  5.3 °C 29.87 in /  1011.4 hPa NW 2.3 mph /  3.7 km/h   60 % 0.00 in /  0 mm
16:52 54.9 °F /  12.7 °C 41.7 °F /  5.4 °C 29.87 in /  1011.4 hPa WNW 2.3 mph /  3.7 km/h   61 % 0.00 in /  0 mm
16:57 54.8 °F /  12.7 °C 42.0 °F /  5.6 °C 29.87 in /  1011.4 hPa NNW 1.2 mph /  1.9 km/h 1.2 mph /  1.9 km/h 62 % 0.00 in /  0 mm
17:02 54.7 °F /  12.6 °C 42.3 °F /  5.7 °C 29.87 in /  1011.4 hPa WNW 2.3 mph /  3.7 km/h 2.3 mph /  3.7 km/h 63 % 0.00 in /  0 mm
17:07 54.6 °F /  12.6 °C 41.8 °F /  5.4 °C 29.87 in /  1011.4 hPa WNW 1.2 mph /  1.9 km/h 1.2 mph /  1.9 km/h 62 % 0.00 in /  0 mm
17:12 54.5 °F /  12.5 °C 42.2 °F /  5.7 °C 29.87 in /  1011.4 hPa NW 3.5 mph /  5.6 km/h 3.5 mph /  5.6 km/h 63 % 0.00 in /  0 mm
17:17 54.2 °F /  12.3 °C 41.9 °F /  5.5 °C 29.88 in /  1011.7 hPa NNW 3.5 mph /  5.6 km/h 3.5 mph /  5.6 km/h 63 % 0.00 in /  0 mm
17:22 54.1 °F /  12.3 °C 41.8 °F /  5.4 °C 29.87 in /  1011.4 hPa NW 2.3 mph /  3.7 km/h 2.3 mph /  3.7 km/h 63 % 0.00 in /  0 mm
17:27 53.9 °F /  12.2 °C 41.6 °F /  5.3 °C 29.88 in /  1011.7 hPa NW 1.2 mph /  1.9 km/h   63 % 0.00 in /  0 mm
17:32 53.8 °F /  12.1 °C 41.9 °F /  5.5 °C 29.88 in /  1011.7 hPa NNW 2.3 mph /  3.7 km/h 2.3 mph /  3.7 km/h 64 % 0.00 in /  0 mm
17:37 53.6 °F /  12 °C 42.1 °F /  5.6 °C 29.88 in /  1011.7 hPa NW 2.3 mph /  3.7 km/h 2.3 mph /  3.7 km/h 65 % 0.00 in /  0 mm
17:42 53.3 °F /  11.8 °C 41.8 °F /  5.4 °C 29.88 in /  1011.7 hPa NW 1.2 mph /  1.9 km/h 1.2 mph /  1.9 km/h 65 % 0.00 in /  0 mm
17:47 53.2 °F /  11.8 °C 42.1 °F /  5.6 °C 29.88 in /  1011.7 hPa Calm     66 % 0.00 in /  0 mm
17:52 53.0 °F /  11.7 °C 42.3 °F /  5.7 °C 29.88 in /  1011.7 hPa Calm     67 % 0.00 in /  0 mm
17:57 52.8 °F /  11.6 °C 42.1 °F /  5.6 °C 29.88 in /  1011.7 hPa Calm     67 % 0.00 in /  0 mm
18:02 52.8 °F /  11.6 °C 42.5 °F /  5.8 °C 29.88 in /  1011.7 hPa Calm     68 % 0.00 in /  0 mm
18:07 52.6 °F /  11.4 °C 42.3 °F /  5.7 °C 29.89 in /  1012.1 hPa Calm     68 % 0.00 in /  0 mm
18:12 52.5 °F /  11.4 °C 42.2 °F /  5.7 °C 29.89 in /  1012.1 hPa Calm     68 % 0.00 in /  0 mm
18:17 52.5 °F /  11.4 °C 42.2 °F /  5.7 °C 29.89 in /  1012.1 hPa Calm     68 % 0.00 in /  0 mm
18:22 52.4 °F /  11.3 °C 42.1 °F /  5.6 °C 29.89 in /  1012.1 hPa Calm     68 % 0.00 in /  0 mm
18:27 52.4 °F /  11.3 °C 41.8 °F /  5.4 °C 29.89 in /  1012.1 hPa Calm     67 % 0.00 in /  0 mm
18:32 52.2 °F /  11.2 °C 42.0 °F /  5.6 °C 29.89 in /  1012.1 hPa Calm     68 % 0.00 in /  0 mm
18:37 52.1 °F /  11.2 °C 41.9 °F /  5.5 °C 29.90 in /  1012.4 hPa Calm     68 % 0.00 in /  0 mm
18:42 51.9 °F /  11.1 °C 41.7 °F /  5.4 °C 29.90 in /  1012.4 hPa Calm     68 % 0.00 in /  0 mm
18:47 51.8 °F /  11 °C 41.6 °F /  5.3 °C 29.90 in /  1012.4 hPa Calm     68 % 0.00 in /  0 mm
18:52 51.6 °F /  10.9 °C 41.4 °F /  5.2 °C 29.90 in /  1012.4 hPa Calm     68 % 0.00 in /  0 mm
18:57 51.4 °F /  10.8 °C 41.6 °F /  5.3 °C 29.90 in /  1012.4 hPa Calm     69 % 0.00 in /  0 mm
19:02 51.1 °F /  10.6 °C 42.0 °F /  5.6 °C 29.90 in /  1012.4 hPa Calm     71 % 0.00 in /  0 mm
19:07 50.5 °F /  10.3 °C 42.2 °F /  5.7 °C 29.91 in /  1012.8 hPa Calm     73 % 0.00 in /  0 mm
19:12 50.0 °F /  10 °C 42.0 °F /  5.6 °C 29.91 in /  1012.8 hPa Calm     74 % 0.00 in /  0 mm
19:17 49.6 °F /  9.8 °C 42.0 °F /  5.6 °C 29.91 in /  1012.8 hPa Calm     75 % 0.00 in /  0 mm
19:22 49.4 °F /  9.7 °C 41.8 °F /  5.4 °C 29.91 in /  1012.8 hPa Calm     75 % 0.00 in /  0 mm
19:27 49.2 °F /  9.6 °C 41.6 °F /  5.3 °C 29.91 in /  1012.8 hPa Calm     75 % 0.00 in /  0 mm
19:32 49.3 °F /  9.6 °C 41.7 °F /  5.4 °C 29.91 in /  1012.8 hPa Calm     75 % 0.00 in /  0 mm
19:37 49.4 °F /  9.7 °C 41.8 °F /  5.4 °C 29.91 in /  1012.8 hPa Calm     75 % 0.00 in /  0 mm
19:42 49.5 °F /  9.7 °C 41.9 °F /  5.5 °C 29.91 in /  1012.8 hPa Calm     75 % 0.00 in /  0 mm
19:47 49.5 °F /  9.7 °C 41.6 °F /  5.3 °C 29.91 in /  1012.8 hPa Calm     74 % 0.00 in /  0 mm
19:52 49.3 °F /  9.6 °C 41.7 °F /  5.4 °C 29.92 in /  1013.1 hPa Calm     75 % 0.00 in /  0 mm
19:57 49.0 °F /  9.4 °C 41.4 °F /  5.2 °C 29.92 in /  1013.1 hPa Calm     75 % 0.00 in /  0 mm
20:02 48.6 °F /  9.2 °C 41.7 °F /  5.4 °C 29.92 in /  1013.1 hPa Calm     77 % 0.00 in /  0 mm
20:07 48.5 °F /  9.2 °C 41.3 °F /  5.2 °C 29.92 in /  1013.1 hPa Calm     76 % 0.00 in /  0 mm
20:12 48.8 °F /  9.3 °C 41.6 °F /  5.3 °C 29.92 in /  1013.1 hPa Calm     76 % 0.00 in /  0 mm
20:17 48.8 °F /  9.3 °C 41.6 °F /  5.3 °C 29.92 in /  1013.1 hPa Calm     76 % 0.00 in /  0 mm
20:22 48.7 °F /  9.3 °C 41.5 °F /  5.3 °C 29.93 in /  1013.4 hPa Calm     76 % 0.00 in /  0 mm
20:27 48.6 °F /  9.2 °C 41.4 °F /  5.2 °C 29.93 in /  1013.4 hPa Calm     76 % 0.00 in /  0 mm
20:33 48.4 °F /  9.1 °C 41.5 °F /  5.3 °C 29.93 in /  1013.4 hPa Calm     77 % 0.00 in /  0 mm
20:38 48.2 °F /  9 °C 41.3 °F /  5.2 °C 29.93 in /  1013.4 hPa Calm     77 % 0.00 in /  0 mm
20:43 47.9 °F /  8.8 °C 41.0 °F /  5 °C 29.93 in /  1013.4 hPa Calm     77 % 0.00 in /  0 mm
20:48 47.7 °F /  8.7 °C 41.2 °F /  5.1 °C 29.94 in /  1013.8 hPa Calm     78 % 0.00 in /  0 mm
20:53 47.4 °F /  8.6 °C 40.9 °F /  4.9 °C 29.94 in /  1013.8 hPa Calm     78 % 0.00 in /  0 mm
20:58 47.3 °F /  8.5 °C 41.1 °F /  5.1 °C 29.94 in /  1013.8 hPa Calm     79 % 0.00 in /  0 mm
21:03 47.2 °F /  8.4 °C 41.0 °F /  5 °C 29.94 in /  1013.8 hPa Calm     79 % 0.00 in /  0 mm
21:08 46.9 °F /  8.3 °C 40.7 °F /  4.8 °C 29.94 in /  1013.8 hPa Calm     79 % 0.00 in /  0 mm
21:13 46.3 °F /  7.9 °C 40.8 °F /  4.9 °C 29.95 in /  1014.1 hPa Calm     81 % 0.00 in /  0 mm
21:18 46.2 °F /  7.9 °C 40.7 °F /  4.8 °C 29.95 in /  1014.1 hPa Calm     81 % 0.00 in /  0 mm
21:23 46.3 °F /  7.9 °C 40.8 °F /  4.9 °C 29.95 in /  1014.1 hPa Calm     81 % 0.00 in /  0 mm
21:28 46.7 °F /  8.2 °C 40.9 °F /  4.9 °C 29.95 in /  1014.1 hPa Calm     80 % 0.00 in /  0 mm
21:33 47.0 °F /  8.3 °C 41.1 °F /  5.1 °C 29.95 in /  1014.1 hPa Calm     80 % 0.00 in /  0 mm
21:38 47.1 °F /  8.4 °C 40.9 °F /  4.9 °C 29.95 in /  1014.1 hPa Calm     79 % 0.00 in /  0 mm
21:43 47.0 °F /  8.3 °C 40.8 °F /  4.9 °C 29.95 in /  1014.1 hPa Calm     79 % 0.00 in /  0 mm
21:48 47.0 °F /  8.3 °C 40.8 °F /  4.9 °C 29.96 in /  1014.4 hPa NW 1.0 mph /  1.6 km/h   79 % 0.00 in /  0 mm
21:53 46.8 °F /  8.2 °C 40.6 °F /  4.8 °C 29.96 in /  1014.4 hPa Calm     79 % 0.00 in /  0 mm
21:58 46.6 °F /  8.1 °C 40.8 °F /  4.9 °C 29.96 in /  1014.4 hPa Calm     80 % 0.00 in /  0 mm
22:03 46.5 °F /  8.1 °C 40.7 °F /  4.8 °C 29.96 in /  1014.4 hPa Calm     80 % 0.00 in /  0 mm
22:08 46.4 °F /  8 °C 40.6 °F /  4.8 °C 29.96 in /  1014.4 hPa Calm     80 % 0.00 in /  0 mm
22:13 46.4 °F /  8 °C 40.6 °F /  4.8 °C 29.96 in /  1014.4 hPa Calm     80 % 0.00 in /  0 mm
22:18 46.4 °F /  8 °C 40.2 °F /  4.6 °C 29.97 in /  1014.8 hPa Calm     79 % 0.00 in /  0 mm
22:23 46.2 °F /  7.9 °C 40.4 °F /  4.7 °C 29.97 in /  1014.8 hPa Calm     80 % 0.00 in /  0 mm
22:28 46.1 °F /  7.8 °C 40.3 °F /  4.6 °C 29.97 in /  1014.8 hPa Calm     80 % 0.00 in /  0 mm
22:33 45.8 °F /  7.7 °C 40.0 °F /  4.4 °C 29.97 in /  1014.8 hPa Calm     80 % 0.00 in /  0 mm
22:38 45.2 °F /  7.3 °C 39.7 °F /  4.3 °C 29.97 in /  1014.8 hPa Calm     81 % 0.00 in /  0 mm
22:43 44.7 °F /  7.1 °C 39.5 °F /  4.2 °C 29.97 in /  1014.8 hPa Calm     82 % 0.00 in /  0 mm
22:48 44.3 °F /  6.8 °C 39.2 °F /  4 °C 29.97 in /  1014.8 hPa Calm     82 % 0.00 in /  0 mm
22:53 44.1 °F /  6.7 °C 39.3 °F /  4.1 °C 29.98 in /  1015.1 hPa Calm     83 % 0.00 in /  0 mm
22:58 43.9 °F /  6.6 °C 39.1 °F /  3.9 °C 29.98 in /  1015.1 hPa Calm     83 % 0.00 in /  0 mm
23:03 43.5 °F /  6.4 °C 38.7 °F /  3.7 °C 29.98 in /  1015.1 hPa Calm     83 % 0.00 in /  0 mm
23:08 43.0 °F /  6.1 °C 38.5 °F /  3.6 °C 29.98 in /  1015.1 hPa Calm     84 % 0.00 in /  0 mm
23:13 42.5 °F /  5.8 °C 38.0 °F /  3.3 °C 29.98 in /  1015.1 hPa NNE 1.2 mph /  1.9 km/h   84 % 0.00 in /  0 mm
23:18 42.1 °F /  5.6 °C 37.9 °F /  3.3 °C 29.99 in /  1015.5 hPa Calm     85 % 0.00 in /  0 mm
23:23 41.9 °F /  5.5 °C 38.0 °F /  3.3 °C 29.99 in /  1015.5 hPa Calm     86 % 0.00 in /  0 mm
23:28 41.7 °F /  5.4 °C 37.8 °F /  3.2 °C 29.98 in /  1015.1 hPa Calm     86 % 0.00 in /  0 mm
23:33 41.4 °F /  5.2 °C 37.5 °F /  3.1 °C 29.99 in /  1015.5 hPa Calm     86 % 0.00 in /  0 mm
23:38 41.2 °F /  5.1 °C 37.6 °F /  3.1 °C 29.99 in /  1015.5 hPa Calm     87 % 0.00 in /  0 mm
23:43 40.9 °F /  4.9 °C 37.3 °F /  2.9 °C 29.99 in /  1015.5 hPa Calm     87 % 0.00 in /  0 mm
23:48 40.6 °F /  4.8 °C 37.0 °F /  2.8 °C 29.99 in /  1015.5 hPa Calm     87 % 0.00 in /  0 mm
23:53 40.4 °F /  4.7 °C 37.1 °F /  2.8 °C 29.99 in /  1015.5 hPa Calm     88 % 0.00 in /  0 mm
23:58 40.2 °F /  4.6 °C 36.9 °F /  2.7 °C 30.00 in /  1015.8 hPa Calm     88 % 0.00 in /  0 mm
Park Place, Exeter, Tulare County, California, USA
Compliments of Weather Underground - 2.75 mb